createdAt,value
2022-09-30T00:02:59.311Z,96.29
2022-09-30T00:06:09.378Z,96.35
2022-09-30T00:09:15.971Z,96.81
2022-09-30T00:12:22.635Z,97.20
2022-09-30T00:15:29.395Z,96.08
2022-09-30T00:18:35.989Z,95.97
2022-09-30T00:21:44.087Z,95.83
2022-09-30T00:24:51.439Z,96.50
2022-09-30T00:27:57.710Z,96.97
2022-09-30T00:31:06.283Z,96.65
2022-09-30T00:34:12.812Z,96.27
2022-09-30T00:37:21.003Z,96.38
2022-09-30T00:40:31.008Z,96.55
2022-09-30T00:43:46.572Z,96.50
2022-09-30T00:46:52.906Z,96.92
2022-09-30T00:50:03.374Z,96.58
2022-09-30T00:53:17.236Z,96.75
2022-09-30T00:56:27.212Z,97.11
2022-09-30T00:59:39.029Z,97.22
2022-09-30T01:02:45.415Z,96.90
2022-09-30T01:05:52.855Z,97.07
2022-09-30T01:09:01.021Z,97.09
2022-09-30T01:12:09.869Z,97.42
2022-09-30T01:15:16.899Z,97.01
2022-09-30T01:18:34.327Z,97.14
2022-09-30T01:22:06.480Z,97.50
2022-09-30T01:25:41.623Z,96.68
2022-09-30T01:29:15.434Z,96.70
2022-09-30T01:32:36.919Z,96.86
2022-09-30T01:36:11.109Z,97.47
2022-09-30T01:39:30.676Z,97.96
2022-09-30T01:42:47.479Z,97.19
2022-09-30T01:46:01.184Z,96.57
2022-09-30T01:49:18.214Z,96.46
2022-09-30T01:52:29.197Z,97.28
2022-09-30T01:55:40.496Z,96.79
2022-09-30T01:58:53.615Z,97.44
2022-09-30T02:02:05.538Z,96.93
2022-09-30T02:05:20.668Z,97.51
2022-09-30T02:08:32.418Z,97.26
2022-09-30T02:11:41.495Z,97.46
2022-09-30T02:14:51.802Z,97.04
2022-09-30T02:18:02.545Z,97.69
2022-09-30T02:21:14.082Z,97.69
2022-09-30T02:24:26.331Z,98.12
2022-09-30T02:27:44.649Z,97.61
2022-09-30T02:30:54.869Z,97.60
2022-09-30T02:34:08.953Z,97.29
2022-09-30T02:37:23.059Z,97.73
2022-09-30T02:40:34.183Z,97.64
2022-09-30T02:43:43.128Z,97.87
2022-09-30T02:46:56.671Z,97.62
2022-09-30T02:50:07.871Z,97.28
2022-09-30T02:53:30.698Z,96.43
2022-09-30T02:56:51.625Z,95.88
2022-09-30T02:59:57.732Z,96.10
2022-09-30T03:03:08.753Z,96.42
2022-09-30T03:06:15.720Z,96.31
2022-09-30T03:09:28.138Z,95.69
2022-09-30T03:12:44.996Z,95.64
2022-09-30T03:16:01.399Z,95.59
2022-09-30T03:19:25.617Z,95.90
2022-09-30T03:23:01.898Z,96.01
2022-09-30T03:26:21.343Z,95.36
2022-09-30T03:29:37.181Z,95.45
2022-09-30T03:32:59.481Z,96.10
2022-09-30T03:36:11.871Z,96.48
2022-09-30T03:39:27.295Z,96.51
2022-09-30T03:42:42.230Z,96.66
2022-09-30T03:45:53.550Z,96.72
2022-09-30T03:49:03.595Z,96.96
2022-09-30T03:52:17.237Z,96.82
2022-09-30T03:55:25.679Z,96.70
2022-09-30T03:58:35.201Z,96.74
2022-09-30T04:01:42.476Z,97.04
2022-09-30T04:04:48.644Z,97.11
2022-09-30T04:07:55.639Z,96.85
2022-09-30T04:11:03.086Z,97.02
2022-09-30T04:14:10.937Z,96.89
2022-09-30T04:17:22.156Z,96.98
2022-09-30T04:20:26.776Z,97.01
2022-09-30T04:23:32.196Z,97.23
2022-09-30T04:26:40.904Z,96.58
2022-09-30T04:29:53.608Z,96.91
2022-09-30T04:33:01.023Z,96.39
2022-09-30T04:36:21.166Z,96.42
2022-09-30T04:39:28.463Z,96.52
2022-09-30T04:42:40.489Z,96.77
2022-09-30T04:45:48.977Z,96.64
2022-09-30T04:49:08.518Z,96.78
2022-09-30T04:52:24.933Z,96.42
2022-09-30T04:55:37.565Z,96.51
2022-09-30T04:58:45.146Z,96.04
2022-09-30T05:01:59.987Z,95.62
2022-09-30T05:05:05.023Z,96.08
2022-09-30T05:08:23.725Z,96.38
2022-09-30T05:11:31.942Z,96.19
2022-09-30T05:14:37.498Z,96.51
2022-09-30T05:17:42.784Z,96.43
2022-09-30T05:20:55.715Z,96.30
2022-09-30T05:24:12.343Z,96.33
2022-09-30T05:27:24.347Z,96.81
2022-09-30T05:30:37.012Z,96.79
2022-09-30T05:33:54.561Z,96.72
2022-09-30T05:37:22.418Z,96.55
2022-09-30T05:44:03.705Z,96.75
2022-09-30T05:47:39.865Z,96.94
2022-09-30T05:51:49.964Z,96.78
2022-09-30T05:55:08.962Z,95.93
2022-09-30T05:58:20.533Z,96.26
2022-09-30T06:01:32.606Z,96.37
2022-09-30T06:04:39.178Z,96.58
2022-09-30T06:07:46.353Z,96.08
2022-09-30T06:10:55.050Z,94.71
2022-09-30T06:14:01.827Z,94.58
2022-09-30T06:17:15.130Z,93.68
2022-09-30T06:20:26.794Z,93.19
2022-09-30T06:23:36.205Z,92.76
2022-09-30T06:26:44.252Z,91.59
2022-09-30T06:29:54.959Z,90.63
2022-09-30T06:32:59.593Z,87.93
2022-09-30T06:36:06.155Z,84.11
2022-09-30T06:39:24.156Z,81.26
2022-09-30T06:42:33.306Z,80.08
2022-09-30T06:46:15.016Z,78.31
2022-09-30T06:49:45.666Z,73.34
2022-09-30T06:53:01.959Z,68.90
2022-09-30T06:56:30.373Z,66.00
2022-09-30T07:03:11.546Z,65.11
2022-09-30T07:09:59.606Z,70.66
2022-09-30T07:13:14.265Z,74.12
2022-09-30T07:16:40.087Z,76.58
2022-09-30T07:19:51.869Z,79.28
2022-09-30T07:23:02.395Z,81.05
2022-09-30T07:26:15.968Z,82.64
2022-09-30T07:30:13.328Z,83.67
2022-09-30T07:33:34.988Z,85.36
2022-09-30T07:36:48.630Z,86.33
2022-09-30T07:40:34.973Z,87.36
2022-09-30T07:43:57.270Z,87.23
2022-09-30T07:47:17.042Z,86.83
2022-09-30T07:50:38.083Z,87.96
2022-09-30T07:53:56.368Z,87.82
2022-09-30T07:57:21.750Z,88.66
2022-09-30T08:00:42.412Z,88.39
2022-09-30T08:04:43.962Z,89.37
2022-09-30T08:08:15.899Z,90.04
2022-09-30T08:11:47.008Z,90.45
2022-09-30T08:15:35.863Z,90.73
2022-09-30T08:18:54.507Z,91.28
2022-09-30T08:22:41.852Z,90.97
2022-09-30T08:26:04.596Z,90.15
2022-09-30T08:44:54.099Z,88.16
2022-09-30T08:52:15.948Z,86.66
2022-09-30T08:55:57.852Z,85.15
2022-09-30T08:59:12.050Z,83.88
2022-09-30T09:02:40.702Z,83.36
2022-09-30T09:06:07.972Z,82.59
2022-09-30T09:09:45.806Z,79.81
2022-09-30T09:13:10.763Z,79.71
2022-09-30T09:16:52.303Z,79.52
2022-09-30T09:23:56.822Z,75.50
2022-09-30T09:27:25.691Z,76.17
2022-09-30T09:30:47.773Z,75.21
2022-09-30T09:37:56.179Z,74.63
2022-09-30T09:41:23.227Z,72.59
2022-09-30T09:44:34.242Z,72.16
2022-09-30T09:47:47.970Z,70.25
2022-09-30T09:51:10.596Z,67.25
2022-09-30T09:54:36.068Z,67.47
2022-09-30T09:57:48.181Z,66.64
2022-09-30T10:01:33.702Z,66.99
2022-09-30T10:05:00.688Z,66.41
2022-09-30T10:08:14.648Z,67.78
2022-09-30T10:11:28.717Z,66.47
2022-09-30T10:14:35.663Z,66.26
2022-09-30T10:17:44.387Z,62.93
2022-09-30T10:21:00.561Z,60.76
2022-09-30T10:24:23.223Z,61.08
2022-09-30T10:27:38.209Z,60.13
2022-09-30T10:30:48.997Z,58.54
2022-09-30T10:34:05.231Z,59.35
2022-09-30T10:37:18.381Z,60.80
2022-09-30T10:40:29.076Z,59.72
2022-09-30T10:43:44.372Z,60.81
2022-09-30T10:47:00.683Z,59.97
2022-09-30T10:50:10.080Z,59.76
2022-09-30T10:53:24.398Z,61.73
2022-09-30T10:56:52.951Z,60.42
2022-09-30T11:00:02.821Z,60.88
2022-09-30T11:03:17.571Z,61.88
2022-09-30T11:06:26.527Z,60.50
2022-09-30T11:09:41.035Z,56.12
2022-09-30T11:12:52.682Z,56.45
2022-09-30T11:16:06.608Z,55.76
2022-09-30T11:19:21.872Z,54.80
2022-09-30T11:22:38.592Z,55.11
2022-09-30T11:25:53.524Z,54.26
2022-09-30T11:29:16.390Z,54.51
2022-09-30T11:32:43.878Z,54.87
2022-09-30T11:35:57.808Z,52.83
2022-09-30T11:39:28.088Z,54.09
2022-09-30T11:42:47.087Z,51.66
2022-09-30T11:46:11.488Z,52.17
2022-09-30T11:49:55.159Z,51.89
2022-09-30T11:53:15.964Z,54.37
2022-09-30T11:56:34.516Z,53.47
2022-09-30T11:59:48.081Z,48.63
2022-09-30T12:02:59.995Z,47.34
2022-09-30T12:06:13.803Z,46.66
2022-09-30T12:09:25.799Z,47.72
2022-09-30T12:12:33.848Z,46.06
2022-09-30T12:15:50.831Z,46.57
2022-09-30T12:19:01.105Z,46.62
2022-09-30T12:22:13.834Z,48.24
2022-09-30T12:25:23.873Z,47.55
2022-09-30T12:28:53.187Z,46.54
2022-09-30T12:32:44.171Z,46.25
2022-09-30T12:36:37.258Z,48.45
2022-09-30T12:40:27.650Z,48.48
2022-09-30T12:44:15.546Z,45.45
2022-09-30T12:47:51.010Z,45.77
2022-09-30T12:51:20.512Z,44.25
2022-09-30T12:55:13.876Z,45.05
2022-09-30T12:59:07.728Z,46.71
2022-09-30T13:02:34.019Z,49.80
2022-09-30T13:06:21.075Z,49.50
2022-09-30T13:09:47.407Z,49.74
2022-09-30T13:13:26.340Z,51.93
2022-09-30T13:17:10.699Z,52.67
2022-09-30T13:20:50.778Z,52.65
2022-09-30T13:24:26.668Z,53.24
2022-09-30T13:31:17.265Z,54.01
2022-09-30T13:34:27.585Z,54.09
2022-09-30T13:37:45.833Z,54.75
2022-09-30T13:41:02.333Z,54.40
2022-09-30T13:44:17.961Z,53.95
2022-09-30T13:47:32.621Z,55.82
2022-09-30T13:50:47.233Z,54.31
2022-09-30T13:53:59.303Z,56.57
2022-09-30T13:57:10.702Z,56.02
2022-09-30T14:00:22.228Z,55.07
2022-09-30T14:03:48.949Z,54.17
2022-09-30T14:07:08.282Z,53.85
2022-09-30T14:10:38.048Z,54.75
2022-09-30T14:13:58.959Z,56.05
2022-09-30T14:17:26.784Z,56.33
2022-09-30T14:20:54.864Z,56.85
2022-09-30T14:24:04.819Z,57.15
2022-09-30T14:27:26.787Z,58.96
2022-09-30T14:30:45.273Z,60.68
2022-09-30T14:33:54.283Z,58.55
2022-09-30T14:37:03.103Z,57.40
2022-09-30T14:40:14.260Z,58.05
2022-09-30T14:43:21.382Z,56.96
2022-09-30T14:46:35.608Z,59.14
2022-09-30T14:49:40.287Z,58.54
2022-09-30T14:52:49.206Z,57.80
2022-09-30T14:55:56.333Z,57.78
2022-09-30T14:59:02.643Z,57.76
2022-09-30T15:02:18.357Z,56.96
2022-09-30T15:05:21.388Z,58.10
2022-09-30T15:08:25.036Z,59.48
2022-09-30T15:11:28.191Z,59.61
2022-09-30T15:14:32.406Z,56.94
2022-09-30T15:17:39.419Z,57.06
2022-09-30T15:20:43.539Z,57.93
2022-09-30T15:23:49.476Z,58.40
2022-09-30T15:26:55.571Z,59.53
2022-09-30T15:29:59.783Z,58.71
2022-09-30T15:33:06.263Z,59.40
2022-09-30T15:36:17.058Z,59.78
2022-09-30T15:39:23.738Z,61.14
2022-09-30T15:42:35.403Z,62.19
2022-09-30T15:45:44.016Z,60.87
2022-09-30T15:48:49.734Z,60.57
2022-09-30T15:51:52.492Z,62.40
2022-09-30T15:54:56.453Z,63.40
2022-09-30T15:58:00.857Z,61.22
2022-09-30T16:01:16.952Z,59.87
2022-09-30T16:04:26.610Z,63.58
2022-09-30T16:07:34.140Z,67.43
2022-09-30T16:10:39.698Z,70.10
2022-09-30T16:13:45.868Z,71.18
2022-09-30T16:16:51.842Z,71.82
2022-09-30T16:19:59.604Z,72.58
2022-09-30T16:23:02.680Z,72.93
2022-09-30T16:26:30.857Z,73.42
2022-09-30T16:29:34.768Z,73.74
2022-09-30T16:32:44.471Z,74.01
2022-09-30T16:35:48.857Z,74.48
2022-09-30T16:38:51.611Z,75.15
2022-09-30T16:41:54.617Z,75.60
2022-09-30T16:44:57.353Z,76.05
2022-09-30T16:48:01.778Z,76.40
2022-09-30T16:51:08.298Z,76.77
2022-09-30T16:54:11.374Z,76.98
2022-09-30T16:57:16.433Z,76.80
2022-09-30T17:00:19.331Z,76.97
2022-09-30T17:03:22.561Z,77.58
2022-09-30T17:06:30.490Z,77.32
2022-09-30T17:09:33.572Z,77.47
2022-09-30T17:12:36.472Z,77.74
2022-09-30T17:15:39.177Z,77.97
2022-09-30T17:18:41.903Z,77.93
2022-09-30T17:21:46.050Z,78.17
2022-09-30T17:24:48.769Z,78.45
2022-09-30T17:27:51.695Z,78.63
2022-09-30T17:30:54.815Z,78.75
2022-09-30T17:33:57.607Z,79.31
2022-09-30T17:37:01.798Z,79.91
2022-09-30T17:40:25.729Z,79.72
2022-09-30T17:43:27.448Z,80.01
2022-09-30T17:46:41.528Z,80.66
2022-09-30T17:49:44.536Z,80.77
2022-09-30T17:52:48.804Z,80.62
2022-09-30T17:56:03.920Z,80.61
2022-09-30T17:59:07.062Z,80.81
2022-09-30T18:02:10.882Z,81.30
2022-09-30T18:05:14.504Z,81.10
2022-09-30T18:08:19.256Z,81.39
2022-09-30T18:11:22.999Z,81.33
2022-09-30T18:14:26.640Z,81.49
2022-09-30T18:17:29.477Z,82.12
2022-09-30T18:20:32.212Z,82.82
2022-09-30T18:23:36.960Z,82.90
2022-09-30T18:26:39.682Z,83.18
2022-09-30T18:29:42.503Z,83.47
2022-09-30T18:32:48.121Z,83.33
2022-09-30T18:35:51.456Z,84.06
2022-09-30T18:38:58.297Z,84.12
2022-09-30T18:42:01.482Z,84.27
2022-09-30T18:45:04.864Z,84.49
2022-09-30T18:48:08.414Z,84.61
2022-09-30T18:51:11.111Z,83.54
2022-09-30T18:54:15.955Z,83.56
2022-09-30T18:57:18.697Z,83.35
2022-09-30T19:00:21.703Z,84.08
2022-09-30T19:03:24.511Z,84.01
2022-09-30T19:06:30.232Z,84.32
2022-09-30T19:09:34.583Z,85.10
2022-09-30T19:12:38.863Z,85.33
2022-09-30T19:15:41.999Z,85.81
2022-09-30T19:18:45.380Z,86.10
2022-09-30T19:21:49.898Z,86.39
2022-09-30T19:24:54.148Z,86.42
2022-09-30T19:27:57.207Z,86.56
2022-09-30T19:31:05.217Z,86.37
2022-09-30T19:34:09.187Z,86.94
2022-09-30T19:37:22.990Z,86.73
2022-09-30T19:43:40.809Z,86.73
2022-09-30T19:46:43.805Z,86.93
2022-09-30T19:49:46.500Z,86.95
2022-09-30T19:52:56.860Z,86.39
2022-09-30T19:56:03.366Z,86.34
2022-09-30T19:59:08.806Z,86.59
2022-09-30T20:02:12.407Z,86.74
2022-09-30T20:05:15.439Z,87.34
2022-09-30T20:08:19.491Z,87.69
2022-09-30T20:11:25.146Z,88.03
2022-09-30T20:14:45.355Z,87.97
2022-09-30T20:17:48.442Z,86.47
2022-09-30T20:20:51.135Z,86.39
2022-09-30T20:23:54.659Z,86.46
2022-09-30T20:26:59.267Z,87.01
2022-09-30T20:30:02.190Z,87.39
2022-09-30T20:33:05.483Z,87.02
2022-09-30T20:36:10.798Z,87.65
2022-09-30T20:39:13.680Z,87.03
2022-09-30T20:42:17.824Z,87.94
2022-09-30T20:45:20.584Z,88.00
2022-09-30T20:48:23.515Z,87.76
2022-09-30T20:51:27.674Z,87.00
2022-09-30T20:54:32.479Z,87.27
2022-09-30T20:57:36.814Z,87.09
2022-09-30T21:00:43.011Z,87.45
2022-09-30T21:03:50.161Z,87.66
2022-09-30T21:06:52.901Z,88.11
2022-09-30T21:09:56.078Z,87.85
2022-09-30T21:13:01.311Z,87.95
2022-09-30T21:16:06.706Z,87.30
2022-09-30T21:19:10.312Z,87.54
2022-09-30T21:22:13.120Z,87.23
2022-09-30T21:25:19.137Z,87.45
2022-09-30T21:28:23.420Z,87.76
2022-09-30T21:31:28.094Z,87.87
2022-09-30T21:34:31.261Z,87.95
2022-09-30T21:37:34.642Z,87.97
2022-09-30T21:40:38.486Z,88.21
2022-09-30T21:43:43.835Z,87.33
2022-09-30T21:46:48.809Z,86.90
2022-09-30T21:49:53.672Z,87.44
2022-09-30T21:52:58.690Z,87.21
2022-09-30T21:56:03.375Z,87.95
2022-09-30T21:59:07.719Z,88.38
2022-09-30T22:02:10.777Z,88.38
2022-09-30T22:05:20.620Z,88.40
2022-09-30T22:08:23.614Z,88.71
2022-09-30T22:11:26.563Z,88.74
2022-09-30T22:14:30.755Z,88.61
2022-09-30T22:17:33.528Z,87.79
2022-09-30T22:20:36.326Z,88.00
2022-09-30T22:23:39.140Z,88.86
2022-09-30T22:26:43.314Z,89.47
2022-09-30T22:29:48.147Z,89.80
2022-09-30T22:33:10.851Z,89.41
2022-09-30T22:36:30.975Z,89.48
2022-09-30T22:39:34.153Z,89.98
2022-09-30T22:42:37.154Z,90.27
2022-09-30T22:45:43.907Z,90.16
2022-09-30T22:48:48.111Z,90.46
2022-09-30T22:51:52.036Z,90.43
2022-09-30T22:54:57.276Z,90.10
2022-09-30T22:58:00.059Z,90.21
2022-09-30T23:01:04.931Z,89.94
2022-09-30T23:04:08.086Z,89.21
2022-09-30T23:07:11.494Z,89.52
2022-09-30T23:10:14.802Z,88.79
2022-09-30T23:13:19.962Z,88.55
2022-09-30T23:16:24.474Z,88.87
2022-09-30T23:19:27.490Z,88.73
2022-09-30T23:22:30.459Z,88.46
2022-09-30T23:25:33.872Z,88.57
2022-09-30T23:28:37.459Z,88.37
2022-09-30T23:31:42.107Z,88.40
2022-09-30T23:34:45.063Z,87.75
2022-09-30T23:37:51.487Z,87.84
2022-09-30T23:40:58.887Z,87.60
2022-09-30T23:44:02.215Z,87.77
2022-09-30T23:47:19.054Z,87.92
2022-09-30T23:50:21.808Z,88.51
2022-09-30T23:53:24.620Z,88.92
2022-09-30T23:56:27.459Z,89.16
2022-09-30T23:59:30.884Z,89.10
